createdAt,value
2022-11-29T13:08:09.836Z,97205.66
2022-11-29T14:38:48.121Z,97234.50
2022-11-29T14:42:17.465Z,97222.59
2022-11-29T14:45:51.308Z,97225.25
2022-11-29T14:48:53.976Z,97234.50
2022-11-29T14:52:15.830Z,97230.38
2022-11-29T14:55:23.134Z,97231.22
2022-11-29T14:58:22.884Z,97237.97
2022-11-29T15:01:14.869Z,97231.88
2022-11-29T15:04:08.253Z,97232.84
2022-11-29T15:07:06.871Z,97235.19
2022-11-29T15:09:56.970Z,97251.69
2022-11-29T15:13:07.302Z,97247.25
2022-11-29T15:16:15.484Z,97263.16
2022-11-29T15:19:47.408Z,97250.56
2022-11-29T15:23:21.069Z,97259.53
2022-11-29T15:26:39.006Z,97256.72
2022-11-29T15:29:35.305Z,97250.63
2022-11-29T15:32:31.140Z,97248.50
2022-11-29T15:35:19.058Z,97251.97
2022-11-29T15:38:24.744Z,97265.91
2022-11-29T15:41:34.351Z,97253.19
2022-11-29T15:44:22.680Z,97264.78
2022-11-29T15:47:18.840Z,97268.53
2022-11-29T15:50:25.610Z,97272.34
2022-11-29T15:53:17.514Z,97271.66
2022-11-29T15:56:11.946Z,97276.09
2022-11-29T15:59:01.566Z,97271.13
2022-11-29T16:01:50.204Z,97278.75
2022-11-29T16:04:43.584Z,97271.81
2022-11-29T16:07:34.418Z,97265.84
2022-11-29T16:10:33.489Z,97273.16
2022-11-29T16:13:31.510Z,97278.44
2022-11-29T16:16:22.452Z,97279.28
2022-11-29T16:19:23.058Z,97276.75
2022-11-29T16:22:19.023Z,97285.38
2022-11-29T16:25:14.549Z,97287.19
2022-11-29T16:28:01.467Z,97290.50
2022-11-29T16:30:48.275Z,97287.84
2022-11-29T16:33:37.816Z,97287.03
2022-11-29T16:36:27.776Z,97297.16
2022-11-29T16:39:22.463Z,97307.38
2022-11-29T16:42:24.664Z,97297.81
2022-11-29T16:45:36.344Z,97304.75
2022-11-29T16:48:23.133Z,97296.81
2022-11-29T16:51:10.047Z,97297.66
2022-11-29T16:54:21.022Z,97302.25
2022-11-29T16:57:09.308Z,97302.44
2022-11-29T16:59:56.102Z,97300.63
2022-11-29T17:02:45.626Z,97301.44
2022-11-29T17:05:32.713Z,97296.16
2022-11-29T17:08:19.818Z,97290.66
2022-11-29T17:11:06.672Z,97291.34
2022-11-29T17:13:53.756Z,97305.38
2022-11-29T17:16:40.684Z,97296.91
2022-11-29T17:19:30.621Z,97308.97
2022-11-29T17:22:17.449Z,97308.00
2022-11-29T17:25:04.705Z,97299.69
2022-11-29T17:27:51.816Z,97301.38
2022-11-29T17:30:38.664Z,97307.31
2022-11-29T17:33:25.493Z,97309.94
2022-11-29T17:36:15.431Z,97306.94
2022-11-29T17:39:11.817Z,97312.06
2022-11-29T17:45:11.077Z,97317.06
2022-11-29T17:48:05.533Z,97319.69
2022-11-29T17:51:28.842Z,97317.22
2022-11-29T17:54:23.900Z,97312.31
2022-11-29T17:57:16.427Z,97320.06
2022-11-29T18:00:21.298Z,97317.75
2022-11-29T18:03:11.004Z,97322.34
2022-11-29T18:06:06.188Z,97338.22
2022-11-29T18:08:55.428Z,97324.50
2022-11-29T18:11:48.725Z,97340.97
2022-11-29T18:14:40.911Z,97330.41
2022-11-29T18:17:27.942Z,97332.72
2022-11-29T18:20:15.057Z,97328.13
2022-11-29T18:23:07.671Z,97337.75
2022-11-29T18:26:09.420Z,97340.00
2022-11-29T18:28:57.831Z,97338.53
2022-11-29T18:31:47.806Z,97326.34
2022-11-29T18:34:37.246Z,97336.13
2022-11-29T18:38:05.109Z,97319.25
2022-11-29T18:41:15.870Z,97347.09
2022-11-29T18:44:12.292Z,97343.91
2022-11-29T18:46:59.781Z,97339.28
2022-11-29T18:49:48.229Z,97330.53
2022-11-29T18:52:44.001Z,97336.72
2022-11-29T18:55:31.168Z,97335.34
2022-11-29T18:58:20.817Z,97337.88
2022-11-29T19:01:16.891Z,97343.16
2022-11-29T19:04:11.462Z,97335.34
2022-11-29T19:06:59.500Z,97349.59
2022-11-29T19:09:48.706Z,97354.22
2022-11-29T19:12:37.525Z,97364.47
2022-11-29T19:15:27.303Z,97351.50
2022-11-29T19:18:21.204Z,97352.50
2022-11-29T19:21:10.998Z,97348.69
2022-11-29T19:24:00.819Z,97348.03
2022-11-29T19:26:50.493Z,97344.88
2022-11-29T19:29:39.956Z,97342.94
2022-11-29T19:32:27.103Z,97350.97
2022-11-29T19:35:19.832Z,97358.78
2022-11-29T19:38:09.578Z,97382.38
2022-11-29T19:40:56.490Z,97375.91
2022-11-29T19:43:45.313Z,97373.88
2022-11-29T19:46:36.065Z,97372.03
2022-11-29T19:49:23.103Z,97377.19
2022-11-29T19:52:12.302Z,97385.13
2022-11-29T19:55:02.686Z,97404.97
2022-11-29T20:01:11.929Z,97396.03
2022-11-29T20:04:02.905Z,97382.78
2022-11-29T20:06:53.272Z,97385.13
2022-11-29T20:09:40.272Z,97400.50
2022-11-29T20:12:27.312Z,97398.31
2022-11-29T20:15:15.526Z,97410.91
2022-11-29T20:18:13.023Z,97409.41
2022-11-29T20:21:23.693Z,97422.28
2022-11-29T20:24:43.923Z,97424.09
2022-11-29T20:27:25.191Z,97407.66
2022-11-29T20:30:12.951Z,97422.09
2022-11-29T20:33:02.449Z,97417.09
2022-11-29T20:36:16.857Z,97412.66
2022-11-29T20:39:40.544Z,97427.19
2022-11-29T20:42:39.729Z,97430.66
2022-11-29T20:45:26.923Z,97431.66
2022-11-29T20:49:23.405Z,97430.97
2022-11-29T20:52:02.117Z,97439.88
2022-11-29T20:54:51.107Z,97427.44
2022-11-29T20:58:01.106Z,97420.50
2022-11-29T21:00:50.805Z,97422.56
2022-11-29T21:03:40.896Z,97419.78
2022-11-29T21:06:29.183Z,97434.22
2022-11-29T21:09:20.785Z,97421.44
2022-11-29T21:12:08.328Z,97422.97
2022-11-29T21:14:55.409Z,97434.22
2022-11-29T21:17:43.103Z,97421.44
2022-11-29T21:20:32.906Z,97421.59
2022-11-29T21:23:48.923Z,97429.66
2022-11-29T21:26:50.171Z,97449.38
2022-11-29T21:29:37.347Z,97446.00
2022-11-29T21:32:29.313Z,97437.06
2022-11-29T21:35:16.951Z,97449.53
2022-11-29T21:38:03.800Z,97439.25
2022-11-29T21:40:52.541Z,97436.72
2022-11-29T21:44:05.618Z,97431.16
2022-11-29T21:46:48.468Z,97430.50
2022-11-29T21:49:38.097Z,97441.19
2022-11-29T21:52:29.349Z,97429.56
2022-11-29T21:55:16.465Z,97432.06
2022-11-29T21:58:03.360Z,97443.16
2022-11-29T22:00:50.284Z,97446.75
2022-11-29T22:03:37.843Z,97439.81
2022-11-29T22:06:31.963Z,97437.47
2022-11-29T22:09:18.819Z,97430.56
2022-11-29T22:12:25.860Z,97440.13
2022-11-29T22:15:13.992Z,97437.66
2022-11-29T22:18:00.829Z,97438.47
2022-11-29T22:20:47.808Z,97444.88
2022-11-29T22:23:34.635Z,97446.38
2022-11-29T22:26:30.019Z,97438.47
2022-11-29T22:29:17.349Z,97439.47
2022-11-29T22:32:04.468Z,97441.56
2022-11-29T22:34:51.336Z,97443.22
2022-11-29T22:37:43.634Z,97439.59
2022-11-29T22:40:31.871Z,97447.66
2022-11-29T22:43:18.671Z,97443.50
2022-11-29T22:49:21.205Z,97446.31
2022-11-29T22:52:11.074Z,97441.03
2022-11-29T22:55:04.750Z,97446.31
2022-11-29T22:57:53.339Z,97437.69
2022-11-29T23:00:44.164Z,97438.69
2022-11-29T23:03:38.963Z,97430.06
2022-11-29T23:06:31.314Z,97430.91
2022-11-29T23:09:21.719Z,97419.97
2022-11-29T23:12:08.688Z,97427.59
2022-11-29T23:14:56.826Z,97436.88
2022-11-29T23:17:43.983Z,97432.56
2022-11-29T23:20:30.737Z,97441.44
2022-11-29T23:23:17.525Z,97433.00
2022-11-29T23:26:08.347Z,97436.50
2022-11-29T23:28:58.379Z,97430.69
2022-11-29T23:31:46.609Z,97427.88
2022-11-29T23:34:33.902Z,97427.34
2022-11-29T23:37:23.005Z,97431.09
2022-11-29T23:40:10.282Z,97431.81
2022-11-29T23:42:58.749Z,97424.19
2022-11-29T23:45:45.689Z,97420.72
2022-11-29T23:48:32.861Z,97432.63
2022-11-29T23:51:21.001Z,97431.97
2022-11-29T23:54:08.053Z,97419.47
2022-11-29T23:56:54.860Z,97420.88
2022-11-29T23:59:41.653Z,97417.25
